sensor_id;sensor_type;location;lat;lon;timestamp;P1;durP1;ratioP1;P2;durP2;ratioP2
30647;SDS011;17683;53.360;9.736;2023-03-31T00:02:10;12.27;;;4.82;;
30647;SDS011;17683;53.360;9.736;2023-03-31T00:04:39;19.17;;;4.82;;
30647;SDS011;17683;53.360;9.736;2023-03-31T00:07:09;13.05;;;3.65;;
30647;SDS011;17683;53.360;9.736;2023-03-31T00:09:37;17.65;;;4.15;;
30647;SDS011;17683;53.360;9.736;2023-03-31T00:12:04;27.20;;;4.38;;
30647;SDS011;17683;53.360;9.736;2023-03-31T00:14:30;19.30;;;5.82;;
30647;SDS011;17683;53.360;9.736;2023-03-31T00:16:56;15.80;;;4.20;;
30647;SDS011;17683;53.360;9.736;2023-03-31T00:19:22;17.10;;;4.18;;
30647;SDS011;17683;53.360;9.736;2023-03-31T00:21:48;20.08;;;4.25;;
30647;SDS011;17683;53.360;9.736;2023-03-31T00:24:15;13.63;;;3.67;;
30647;SDS011;17683;53.360;9.736;2023-03-31T00:26:42;18.17;;;4.03;;
30647;SDS011;17683;53.360;9.736;2023-03-31T00:29:08;21.85;;;5.18;;
30647;SDS011;17683;53.360;9.736;2023-03-31T00:31:36;22.33;;;4.30;;
30647;SDS011;17683;53.360;9.736;2023-03-31T00:34:03;22.15;;;4.03;;
30647;SDS011;17683;53.360;9.736;2023-03-31T00:36:29;16.83;;;4.15;;
30647;SDS011;17683;53.360;9.736;2023-03-31T00:38:59;21.98;;;4.28;;
30647;SDS011;17683;53.360;9.736;2023-03-31T00:41:28;17.38;;;3.90;;
30647;SDS011;17683;53.360;9.736;2023-03-31T00:46:49;16.92;;;3.20;;
30647;SDS011;17683;53.360;9.736;2023-03-31T00:51:56;19.50;;;3.95;;
30647;SDS011;17683;53.360;9.736;2023-03-31T00:54:46;20.58;;;3.92;;
30647;SDS011;17683;53.360;9.736;2023-03-31T00:57:14;18.95;;;3.85;;
30647;SDS011;17683;53.360;9.736;2023-03-31T00:59:48;13.75;;;3.92;;
30647;SDS011;17683;53.360;9.736;2023-03-31T01:02:16;23.02;;;4.72;;
30647;SDS011;17683;53.360;9.736;2023-03-31T01:04:48;16.55;;;3.83;;
30647;SDS011;17683;53.360;9.736;2023-03-31T01:07:23;20.10;;;4.15;;
30647;SDS011;17683;53.360;9.736;2023-03-31T01:09:56;17.80;;;3.90;;
30647;SDS011;17683;53.360;9.736;2023-03-31T01:12:24;19.70;;;5.00;;
30647;SDS011;17683;53.360;9.736;2023-03-31T01:14:51;25.08;;;4.38;;
30647;SDS011;17683;53.360;9.736;2023-03-31T01:17:20;18.08;;;4.72;;
30647;SDS011;17683;53.360;9.736;2023-03-31T01:31:11;20.67;;;4.63;;
30647;SDS011;17683;53.360;9.736;2023-03-31T01:37:05;13.60;;;4.93;;
30647;SDS011;17683;53.360;9.736;2023-03-31T01:45:31;18.25;;;4.65;;
30647;SDS011;17683;53.360;9.736;2023-03-31T01:47:40;17.38;;;5.60;;
30647;SDS011;17683;53.360;9.736;2023-03-31T01:50:22;13.38;;;5.18;;
30647;SDS011;17683;53.360;9.736;2023-03-31T01:53:01;13.88;;;5.35;;
30647;SDS011;17683;53.360;9.736;2023-03-31T01:55:32;15.50;;;5.22;;
30647;SDS011;17683;53.360;9.736;2023-03-31T02:00:43;18.88;;;5.53;;
30647;SDS011;17683;53.360;9.736;2023-03-31T02:03:21;15.20;;;5.28;;
30647;SDS011;17683;53.360;9.736;2023-03-31T02:05:51;16.75;;;4.82;;
30647;SDS011;17683;53.360;9.736;2023-03-31T02:08:21;15.02;;;5.53;;
30647;SDS011;17683;53.360;9.736;2023-03-31T02:10:51;14.30;;;5.22;;
30647;SDS011;17683;53.360;9.736;2023-03-31T02:13:18;16.45;;;5.35;;
30647;SDS011;17683;53.360;9.736;2023-03-31T02:15:49;16.90;;;5.15;;
30647;SDS011;17683;53.360;9.736;2023-03-31T02:18:17;12.32;;;5.30;;
30647;SDS011;17683;53.360;9.736;2023-03-31T02:20:50;16.73;;;6.00;;
30647;SDS011;17683;53.360;9.736;2023-03-31T02:23:20;12.68;;;4.60;;
30647;SDS011;17683;53.360;9.736;2023-03-31T02:25:51;11.18;;;4.72;;
30647;SDS011;17683;53.360;9.736;2023-03-31T02:28:21;15.95;;;5.72;;
30647;SDS011;17683;53.360;9.736;2023-03-31T02:33:16;14.60;;;4.65;;
30647;SDS011;17683;53.360;9.736;2023-03-31T02:35:41;20.30;;;5.68;;
30647;SDS011;17683;53.360;9.736;2023-03-31T02:38:07;12.23;;;6.20;;
30647;SDS011;17683;53.360;9.736;2023-03-31T02:40:33;14.77;;;4.85;;
30647;SDS011;17683;53.360;9.736;2023-03-31T02:42:59;13.68;;;4.93;;
30647;SDS011;17683;53.360;9.736;2023-03-31T02:45:36;17.90;;;5.80;;
30647;SDS011;17683;53.360;9.736;2023-03-31T02:48:06;14.73;;;5.50;;
30647;SDS011;17683;53.360;9.736;2023-03-31T02:50:43;16.65;;;5.18;;
30647;SDS011;17683;53.360;9.736;2023-03-31T02:53:31;17.73;;;5.85;;
30647;SDS011;17683;53.360;9.736;2023-03-31T03:04:16;12.57;;;5.10;;
30647;SDS011;17683;53.360;9.736;2023-03-31T03:07:03;18.38;;;5.18;;
30647;SDS011;17683;53.360;9.736;2023-03-31T03:09:33;12.32;;;5.45;;
30647;SDS011;17683;53.360;9.736;2023-03-31T03:12:08;15.05;;;4.72;;
30647;SDS011;17683;53.360;9.736;2023-03-31T03:17:34;12.35;;;4.88;;
30647;SDS011;17683;53.360;9.736;2023-03-31T03:20:08;12.20;;;4.85;;
30647;SDS011;17683;53.360;9.736;2023-03-31T03:22:36;17.00;;;5.88;;
30647;SDS011;17683;53.360;9.736;2023-03-31T03:25:04;18.67;;;7.05;;
30647;SDS011;17683;53.360;9.736;2023-03-31T03:27:31;13.13;;;4.20;;
30647;SDS011;17683;53.360;9.736;2023-03-31T03:29:57;16.92;;;5.50;;
30647;SDS011;17683;53.360;9.736;2023-03-31T03:32:22;14.70;;;5.72;;
30647;SDS011;17683;53.360;9.736;2023-03-31T03:34:48;13.73;;;6.80;;
30647;SDS011;17683;53.360;9.736;2023-03-31T03:37:14;18.02;;;6.18;;
30647;SDS011;17683;53.360;9.736;2023-03-31T03:39:40;22.27;;;7.93;;
30647;SDS011;17683;53.360;9.736;2023-03-31T03:42:06;17.17;;;7.18;;
30647;SDS011;17683;53.360;9.736;2023-03-31T03:44:31;20.75;;;7.30;;
30647;SDS011;17683;53.360;9.736;2023-03-31T03:46:57;14.07;;;6.97;;
30647;SDS011;17683;53.360;9.736;2023-03-31T03:49:23;17.63;;;6.43;;
30647;SDS011;17683;53.360;9.736;2023-03-31T03:51:49;17.05;;;8.30;;
30647;SDS011;17683;53.360;9.736;2023-03-31T03:54:15;13.43;;;7.35;;
30647;SDS011;17683;53.360;9.736;2023-03-31T03:56:41;17.65;;;9.00;;
30647;SDS011;17683;53.360;9.736;2023-03-31T03:59:07;22.00;;;8.85;;
30647;SDS011;17683;53.360;9.736;2023-03-31T04:01:33;24.17;;;9.38;;
30647;SDS011;17683;53.360;9.736;2023-03-31T04:03:58;18.65;;;9.57;;
30647;SDS011;17683;53.360;9.736;2023-03-31T04:06:24;19.08;;;9.18;;
30647;SDS011;17683;53.360;9.736;2023-03-31T04:08:50;20.50;;;9.65;;
30647;SDS011;17683;53.360;9.736;2023-03-31T04:11:17;22.95;;;9.65;;
30647;SDS011;17683;53.360;9.736;2023-03-31T04:13:43;25.30;;;9.73;;
30647;SDS011;17683;53.360;9.736;2023-03-31T04:16:10;23.73;;;10.00;;
30647;SDS011;17683;53.360;9.736;2023-03-31T04:18:36;24.67;;;10.48;;
30647;SDS011;17683;53.360;9.736;2023-03-31T04:21:06;20.95;;;10.13;;
30647;SDS011;17683;53.360;9.736;2023-03-31T04:23:36;24.13;;;10.13;;
30647;SDS011;17683;53.360;9.736;2023-03-31T04:26:06;16.98;;;9.27;;
30647;SDS011;17683;53.360;9.736;2023-03-31T04:28:35;24.52;;;10.82;;
30647;SDS011;17683;53.360;9.736;2023-03-31T04:31:02;19.48;;;9.05;;
30647;SDS011;17683;53.360;9.736;2023-03-31T04:33:30;19.52;;;8.88;;
30647;SDS011;17683;53.360;9.736;2023-03-31T04:36:02;16.75;;;9.23;;
30647;SDS011;17683;53.360;9.736;2023-03-31T04:38:44;20.13;;;9.25;;
30647;SDS011;17683;53.360;9.736;2023-03-31T04:41:14;16.63;;;9.45;;
30647;SDS011;17683;53.360;9.736;2023-03-31T04:43:40;15.93;;;8.45;;
30647;SDS011;17683;53.360;9.736;2023-03-31T04:46:06;22.17;;;8.80;;
30647;SDS011;17683;53.360;9.736;2023-03-31T04:48:32;24.17;;;8.95;;
30647;SDS011;17683;53.360;9.736;2023-03-31T04:50:58;21.23;;;8.43;;
30647;SDS011;17683;53.360;9.736;2023-03-31T04:53:24;18.73;;;7.57;;
30647;SDS011;17683;53.360;9.736;2023-03-31T04:55:50;20.08;;;7.50;;
30647;SDS011;17683;53.360;9.736;2023-03-31T04:58:16;18.13;;;7.85;;
30647;SDS011;17683;53.360;9.736;2023-03-31T05:00:42;18.63;;;7.68;;
30647;SDS011;17683;53.360;9.736;2023-03-31T05:03:08;21.90;;;7.57;;
30647;SDS011;17683;53.360;9.736;2023-03-31T05:05:34;21.70;;;8.05;;
30647;SDS011;17683;53.360;9.736;2023-03-31T05:08:00;19.50;;;8.50;;
30647;SDS011;17683;53.360;9.736;2023-03-31T05:10:26;22.10;;;7.90;;
30647;SDS011;17683;53.360;9.736;2023-03-31T05:12:52;23.55;;;8.05;;
30647;SDS011;17683;53.360;9.736;2023-03-31T05:15:17;16.55;;;7.10;;
30647;SDS011;17683;53.360;9.736;2023-03-31T05:17:43;16.05;;;7.53;;
30647;SDS011;17683;53.360;9.736;2023-03-31T05:20:09;15.68;;;7.55;;
30647;SDS011;17683;53.360;9.736;2023-03-31T05:22:37;22.40;;;8.10;;
30647;SDS011;17683;53.360;9.736;2023-03-31T05:25:05;19.83;;;7.53;;
30647;SDS011;17683;53.360;9.736;2023-03-31T05:27:32;21.15;;;7.60;;
30647;SDS011;17683;53.360;9.736;2023-03-31T05:29:58;18.42;;;7.53;;
30647;SDS011;17683;53.360;9.736;2023-03-31T05:32:25;18.02;;;7.28;;
30647;SDS011;17683;53.360;9.736;2023-03-31T05:34:51;17.40;;;6.68;;
30647;SDS011;17683;53.360;9.736;2023-03-31T05:37:21;16.35;;;7.10;;
30647;SDS011;17683;53.360;9.736;2023-03-31T05:39:47;15.13;;;7.15;;
30647;SDS011;17683;53.360;9.736;2023-03-31T05:42:13;17.45;;;7.32;;
30647;SDS011;17683;53.360;9.736;2023-03-31T05:44:39;12.98;;;6.43;;
30647;SDS011;17683;53.360;9.736;2023-03-31T05:47:04;15.57;;;7.50;;
30647;SDS011;17683;53.360;9.736;2023-03-31T05:49:30;23.13;;;7.80;;
30647;SDS011;17683;53.360;9.736;2023-03-31T05:51:56;19.23;;;6.75;;
30647;SDS011;17683;53.360;9.736;2023-03-31T05:54:21;20.08;;;7.70;;
30647;SDS011;17683;53.360;9.736;2023-03-31T05:56:47;17.63;;;7.70;;
30647;SDS011;17683;53.360;9.736;2023-03-31T05:59:13;25.30;;;8.02;;
30647;SDS011;17683;53.360;9.736;2023-03-31T06:01:39;21.00;;;6.60;;
30647;SDS011;17683;53.360;9.736;2023-03-31T06:04:05;16.75;;;6.57;;
30647;SDS011;17683;53.360;9.736;2023-03-31T06:06:30;20.92;;;8.75;;
30647;SDS011;17683;53.360;9.736;2023-03-31T06:08:58;12.75;;;6.90;;
30647;SDS011;17683;53.360;9.736;2023-03-31T06:11:24;16.20;;;7.80;;
30647;SDS011;17683;53.360;9.736;2023-03-31T06:13:50;15.98;;;7.90;;
30647;SDS011;17683;53.360;9.736;2023-03-31T06:16:16;12.13;;;6.88;;
30647;SDS011;17683;53.360;9.736;2023-03-31T06:18:43;20.30;;;6.60;;
30647;SDS011;17683;53.360;9.736;2023-03-31T06:21:10;19.48;;;7.65;;
30647;SDS011;17683;53.360;9.736;2023-03-31T06:23:38;21.08;;;6.50;;
30647;SDS011;17683;53.360;9.736;2023-03-31T06:26:07;18.58;;;6.95;;
30647;SDS011;17683;53.360;9.736;2023-03-31T06:28:33;15.45;;;6.75;;
30647;SDS011;17683;53.360;9.736;2023-03-31T06:31:04;16.83;;;6.90;;
30647;SDS011;17683;53.360;9.736;2023-03-31T06:33:38;17.70;;;7.47;;
30647;SDS011;17683;53.360;9.736;2023-03-31T06:36:05;15.00;;;6.30;;
30647;SDS011;17683;53.360;9.736;2023-03-31T06:38:32;12.80;;;5.45;;
30647;SDS011;17683;53.360;9.736;2023-03-31T06:40:58;15.32;;;6.30;;
30647;SDS011;17683;53.360;9.736;2023-03-31T06:43:24;15.20;;;6.30;;
30647;SDS011;17683;53.360;9.736;2023-03-31T06:45:51;11.75;;;5.65;;
30647;SDS011;17683;53.360;9.736;2023-03-31T06:48:17;14.23;;;5.85;;
30647;SDS011;17683;53.360;9.736;2023-03-31T06:50:43;13.70;;;5.57;;
30647;SDS011;17683;53.360;9.736;2023-03-31T06:53:09;14.40;;;7.03;;
30647;SDS011;17683;53.360;9.736;2023-03-31T06:55:36;12.90;;;6.07;;
30647;SDS011;17683;53.360;9.736;2023-03-31T06:58:02;15.80;;;5.65;;
30647;SDS011;17683;53.360;9.736;2023-03-31T07:00:28;17.30;;;5.95;;
30647;SDS011;17683;53.360;9.736;2023-03-31T07:02:55;9.82;;;5.78;;
30647;SDS011;17683;53.360;9.736;2023-03-31T07:05:21;11.23;;;4.65;;
30647;SDS011;17683;53.360;9.736;2023-03-31T07:07:56;10.13;;;4.53;;
30647;SDS011;17683;53.360;9.736;2023-03-31T07:10:24;12.52;;;5.55;;
30647;SDS011;17683;53.360;9.736;2023-03-31T07:12:51;14.13;;;4.85;;
30647;SDS011;17683;53.360;9.736;2023-03-31T07:15:17;10.45;;;4.57;;
30647;SDS011;17683;53.360;9.736;2023-03-31T07:17:43;13.27;;;4.45;;
30647;SDS011;17683;53.360;9.736;2023-03-31T07:20:10;14.23;;;5.53;;
30647;SDS011;17683;53.360;9.736;2023-03-31T07:22:39;13.77;;;4.32;;
30647;SDS011;17683;53.360;9.736;2023-03-31T07:25:05;11.50;;;4.15;;
30647;SDS011;17683;53.360;9.736;2023-03-31T07:27:32;15.10;;;5.07;;
30647;SDS011;17683;53.360;9.736;2023-03-31T07:29:58;13.10;;;4.60;;
30647;SDS011;17683;53.360;9.736;2023-03-31T07:32:24;8.10;;;3.85;;
30647;SDS011;17683;53.360;9.736;2023-03-31T07:34:50;15.00;;;5.25;;
30647;SDS011;17683;53.360;9.736;2023-03-31T07:37:15;9.10;;;4.70;;
30647;SDS011;17683;53.360;9.736;2023-03-31T07:39:41;9.82;;;3.67;;
30647;SDS011;17683;53.360;9.736;2023-03-31T07:42:07;11.10;;;4.57;;
30647;SDS011;17683;53.360;9.736;2023-03-31T07:44:33;9.75;;;4.63;;
30647;SDS011;17683;53.360;9.736;2023-03-31T07:47:00;9.27;;;3.70;;
30647;SDS011;17683;53.360;9.736;2023-03-31T07:49:29;10.90;;;4.65;;
30647;SDS011;17683;53.360;9.736;2023-03-31T07:51:55;13.48;;;4.53;;
30647;SDS011;17683;53.360;9.736;2023-03-31T07:54:21;8.43;;;3.40;;
30647;SDS011;17683;53.360;9.736;2023-03-31T07:56:46;8.13;;;4.15;;
30647;SDS011;17683;53.360;9.736;2023-03-31T07:59:12;7.63;;;3.28;;
30647;SDS011;17683;53.360;9.736;2023-03-31T08:01:38;8.27;;;3.53;;
30647;SDS011;17683;53.360;9.736;2023-03-31T08:04:04;13.13;;;4.55;;
30647;SDS011;17683;53.360;9.736;2023-03-31T08:06:29;7.88;;;3.33;;
30647;SDS011;17683;53.360;9.736;2023-03-31T08:08:56;9.38;;;3.60;;
30647;SDS011;17683;53.360;9.736;2023-03-31T08:11:22;7.38;;;3.63;;
30647;SDS011;17683;53.360;9.736;2023-03-31T08:13:48;8.93;;;3.78;;
30647;SDS011;17683;53.360;9.736;2023-03-31T08:16:14;10.93;;;3.25;;
30647;SDS011;17683;53.360;9.736;2023-03-31T08:18:40;13.68;;;4.15;;
30647;SDS011;17683;53.360;9.736;2023-03-31T08:21:06;9.60;;;3.60;;
30647;SDS011;17683;53.360;9.736;2023-03-31T08:23:33;9.25;;;3.80;;
30647;SDS011;17683;53.360;9.736;2023-03-31T08:26:12;15.70;;;3.83;;
30647;SDS011;17683;53.360;9.736;2023-03-31T08:28:42;10.20;;;4.18;;
30647;SDS011;17683;53.360;9.736;2023-03-31T08:31:07;11.80;;;2.78;;
30647;SDS011;17683;53.360;9.736;2023-03-31T08:33:34;9.27;;;2.97;;
30647;SDS011;17683;53.360;9.736;2023-03-31T08:36:02;7.18;;;2.38;;
30647;SDS011;17683;53.360;9.736;2023-03-31T08:38:30;8.45;;;3.17;;
30647;SDS011;17683;53.360;9.736;2023-03-31T08:41:03;10.13;;;2.80;;
30647;SDS011;17683;53.360;9.736;2023-03-31T08:43:39;8.70;;;2.42;;
30647;SDS011;17683;53.360;9.736;2023-03-31T08:46:09;5.90;;;2.40;;
30647;SDS011;17683;53.360;9.736;2023-03-31T08:48:41;9.52;;;2.88;;
30647;SDS011;17683;53.360;9.736;2023-03-31T08:56:27;8.25;;;2.53;;
30647;SDS011;17683;53.360;9.736;2023-03-31T08:58:54;5.20;;;2.25;;
30647;SDS011;17683;53.360;9.736;2023-03-31T09:01:30;8.13;;;2.83;;
30647;SDS011;17683;53.360;9.736;2023-03-31T09:09:17;6.70;;;2.95;;
30647;SDS011;17683;53.360;9.736;2023-03-31T09:11:54;8.80;;;2.72;;
30647;SDS011;17683;53.360;9.736;2023-03-31T09:16:58;6.38;;;2.65;;
30647;SDS011;17683;53.360;9.736;2023-03-31T09:19:37;7.97;;;3.05;;
30647;SDS011;17683;53.360;9.736;2023-03-31T09:22:21;7.68;;;3.30;;
30647;SDS011;17683;53.360;9.736;2023-03-31T09:27:27;8.82;;;3.47;;
30647;SDS011;17683;53.360;9.736;2023-03-31T09:30:13;7.32;;;3.55;;
30647;SDS011;17683;53.360;9.736;2023-03-31T09:35:46;5.68;;;2.72;;
30647;SDS011;17683;53.360;9.736;2023-03-31T09:38:12;7.40;;;3.25;;
30647;SDS011;17683;53.360;9.736;2023-03-31T09:40:39;5.22;;;3.58;;
30647;SDS011;17683;53.360;9.736;2023-03-31T09:43:25;5.47;;;3.25;;
30647;SDS011;17683;53.360;9.736;2023-03-31T09:45:53;6.30;;;2.75;;
30647;SDS011;17683;53.360;9.736;2023-03-31T09:48:24;6.03;;;3.30;;
30647;SDS011;17683;53.360;9.736;2023-03-31T09:50:54;9.35;;;4.05;;
30647;SDS011;17683;53.360;9.736;2023-03-31T09:53:40;5.47;;;2.55;;
30647;SDS011;17683;53.360;9.736;2023-03-31T09:59:01;11.80;;;3.20;;
30647;SDS011;17683;53.360;9.736;2023-03-31T10:01:28;8.30;;;2.92;;
30647;SDS011;17683;53.360;9.736;2023-03-31T10:03:54;6.25;;;2.38;;
30647;SDS011;17683;53.360;9.736;2023-03-31T10:06:21;6.40;;;3.20;;
30647;SDS011;17683;53.360;9.736;2023-03-31T10:11:25;8.70;;;2.80;;
30647;SDS011;17683;53.360;9.736;2023-03-31T10:14:12;5.38;;;2.45;;
30647;SDS011;17683;53.360;9.736;2023-03-31T10:16:42;7.93;;;2.67;;
30647;SDS011;17683;53.360;9.736;2023-03-31T10:22:03;7.10;;;2.58;;
30647;SDS011;17683;53.360;9.736;2023-03-31T10:24:38;3.92;;;2.38;;
30647;SDS011;17683;53.360;9.736;2023-03-31T10:27:18;8.73;;;2.60;;
30647;SDS011;17683;53.360;9.736;2023-03-31T10:29:45;3.22;;;2.10;;
30647;SDS011;17683;53.360;9.736;2023-03-31T10:32:21;6.93;;;2.50;;
30647;SDS011;17683;53.360;9.736;2023-03-31T10:35:03;6.03;;;2.38;;
30647;SDS011;17683;53.360;9.736;2023-03-31T10:37:31;4.55;;;1.98;;
30647;SDS011;17683;53.360;9.736;2023-03-31T10:40:01;6.50;;;2.05;;
30647;SDS011;17683;53.360;9.736;2023-03-31T10:42:37;5.57;;;1.92;;
30647;SDS011;17683;53.360;9.736;2023-03-31T10:47:49;5.93;;;1.63;;
30647;SDS011;17683;53.360;9.736;2023-03-31T10:50:18;4.25;;;1.70;;
30647;SDS011;17683;53.360;9.736;2023-03-31T10:52:50;6.68;;;1.80;;
30647;SDS011;17683;53.360;9.736;2023-03-31T10:55:25;5.13;;;1.65;;
30647;SDS011;17683;53.360;9.736;2023-03-31T10:57:56;5.50;;;1.73;;
30647;SDS011;17683;53.360;9.736;2023-03-31T11:05:48;6.47;;;1.67;;
30647;SDS011;17683;53.360;9.736;2023-03-31T11:08:29;5.72;;;1.88;;
30647;SDS011;17683;53.360;9.736;2023-03-31T11:11:07;6.97;;;1.70;;
30647;SDS011;17683;53.360;9.736;2023-03-31T11:13:55;6.15;;;2.17;;
30647;SDS011;17683;53.360;9.736;2023-03-31T11:22:08;4.70;;;2.13;;
30647;SDS011;17683;53.360;9.736;2023-03-31T11:30:31;7.80;;;2.70;;
30647;SDS011;17683;53.360;9.736;2023-03-31T11:36:21;5.63;;;2.10;;
30647;SDS011;17683;53.360;9.736;2023-03-31T11:38:55;6.35;;;2.45;;
30647;SDS011;17683;53.360;9.736;2023-03-31T11:41:43;4.45;;;2.35;;
30647;SDS011;17683;53.360;9.736;2023-03-31T11:44:16;2.83;;;1.83;;
30647;SDS011;17683;53.360;9.736;2023-03-31T11:46:56;6.90;;;2.75;;
30647;SDS011;17683;53.360;9.736;2023-03-31T11:49:31;5.18;;;1.95;;
30647;SDS011;17683;53.360;9.736;2023-03-31T11:52:13;5.85;;;2.40;;
30647;SDS011;17683;53.360;9.736;2023-03-31T11:57:32;6.07;;;2.83;;
30647;SDS011;17683;53.360;9.736;2023-03-31T12:00:05;11.43;;;3.35;;
30647;SDS011;17683;53.360;9.736;2023-03-31T12:05:19;8.33;;;2.77;;
30647;SDS011;17683;53.360;9.736;2023-03-31T12:07:49;9.85;;;2.83;;
30647;SDS011;17683;53.360;9.736;2023-03-31T12:10:21;5.82;;;2.67;;
30647;SDS011;17683;53.360;9.736;2023-03-31T12:15:41;7.60;;;2.90;;
30647;SDS011;17683;53.360;9.736;2023-03-31T12:18:13;6.72;;;2.72;;
30647;SDS011;17683;53.360;9.736;2023-03-31T12:20:47;6.30;;;3.40;;
30647;SDS011;17683;53.360;9.736;2023-03-31T12:23:18;6.57;;;2.50;;
30647;SDS011;17683;53.360;9.736;2023-03-31T12:28:35;10.43;;;3.28;;
30647;SDS011;17683;53.360;9.736;2023-03-31T12:31:03;6.88;;;2.42;;
30647;SDS011;17683;53.360;9.736;2023-03-31T12:33:39;4.25;;;2.50;;
30647;SDS011;17683;53.360;9.736;2023-03-31T12:52:01;5.82;;;2.80;;
30647;SDS011;17683;53.360;9.736;2023-03-31T12:59:34;7.22;;;2.55;;
30647;SDS011;17683;53.360;9.736;2023-03-31T13:02:42;7.45;;;2.65;;
30647;SDS011;17683;53.360;9.736;2023-03-31T13:04:49;3.42;;;2.40;;
30647;SDS011;17683;53.360;9.736;2023-03-31T13:09:54;3.55;;;3.22;;
30647;SDS011;17683;53.360;9.736;2023-03-31T13:12:38;4.82;;;2.58;;
30647;SDS011;17683;53.360;9.736;2023-03-31T13:15:04;3.60;;;2.95;;
30647;SDS011;17683;53.360;9.736;2023-03-31T13:17:38;4.80;;;2.50;;
30647;SDS011;17683;53.360;9.736;2023-03-31T13:22:53;5.57;;;2.33;;
30647;SDS011;17683;53.360;9.736;2023-03-31T13:27:54;4.18;;;2.38;;
30647;SDS011;17683;53.360;9.736;2023-03-31T13:33:08;4.90;;;2.35;;
30647;SDS011;17683;53.360;9.736;2023-03-31T13:35:39;3.35;;;2.47;;
30647;SDS011;17683;53.360;9.736;2023-03-31T13:48:41;2.17;;;1.90;;
30647;SDS011;17683;53.360;9.736;2023-03-31T14:05:25;3.03;;;1.73;;
30647;SDS011;17683;53.360;9.736;2023-03-31T14:07:54;2.08;;;1.80;;
30647;SDS011;17683;53.360;9.736;2023-03-31T14:10:35;1.80;;;1.25;;
30647;SDS011;17683;53.360;9.736;2023-03-31T14:18:26;1.85;;;0.93;;
30647;SDS011;17683;53.360;9.736;2023-03-31T14:21:15;4.03;;;1.35;;
30647;SDS011;17683;53.360;9.736;2023-03-31T14:31:56;1.48;;;0.77;;
30647;SDS011;17683;53.360;9.736;2023-03-31T14:37:48;5.18;;;1.40;;
30647;SDS011;17683;53.360;9.736;2023-03-31T14:40:15;1.67;;;0.82;;
30647;SDS011;17683;53.360;9.736;2023-03-31T14:42:42;1.35;;;1.00;;
30647;SDS011;17683;53.360;9.736;2023-03-31T14:45:26;3.45;;;1.10;;
30647;SDS011;17683;53.360;9.736;2023-03-31T14:48:11;0.88;;;0.77;;
30647;SDS011;17683;53.360;9.736;2023-03-31T14:50:43;1.63;;;1.13;;
30647;SDS011;17683;53.360;9.736;2023-03-31T14:53:21;4.22;;;1.20;;
30647;SDS011;17683;53.360;9.736;2023-03-31T14:55:48;4.75;;;1.10;;
30647;SDS011;17683;53.360;9.736;2023-03-31T14:58:19;2.05;;;1.08;;
30647;SDS011;17683;53.360;9.736;2023-03-31T15:00:49;1.58;;;1.30;;
30647;SDS011;17683;53.360;9.736;2023-03-31T15:03:17;2.10;;;1.00;;
30647;SDS011;17683;53.360;9.736;2023-03-31T15:05:43;1.40;;;1.25;;
30647;SDS011;17683;53.360;9.736;2023-03-31T15:08:14;2.88;;;1.40;;
30647;SDS011;17683;53.360;9.736;2023-03-31T15:10:44;3.20;;;1.42;;
30647;SDS011;17683;53.360;9.736;2023-03-31T15:15:59;2.28;;;1.08;;
30647;SDS011;17683;53.360;9.736;2023-03-31T15:18:43;2.25;;;1.65;;
30647;SDS011;17683;53.360;9.736;2023-03-31T15:21:18;2.90;;;2.03;;
30647;SDS011;17683;53.360;9.736;2023-03-31T15:23:45;4.07;;;2.53;;
30647;SDS011;17683;53.360;9.736;2023-03-31T15:26:11;2.92;;;1.90;;
30647;SDS011;17683;53.360;9.736;2023-03-31T15:28:50;2.95;;;1.40;;
30647;SDS011;17683;53.360;9.736;2023-03-31T15:31:19;2.88;;;1.80;;
30647;SDS011;17683;53.360;9.736;2023-03-31T15:33:45;2.90;;;1.92;;
30647;SDS011;17683;53.360;9.736;2023-03-31T15:36:11;3.30;;;2.30;;
30647;SDS011;17683;53.360;9.736;2023-03-31T15:38:38;3.22;;;1.63;;
30647;SDS011;17683;53.360;9.736;2023-03-31T15:41:09;1.48;;;1.30;;
30647;SDS011;17683;53.360;9.736;2023-03-31T15:43:44;3.80;;;1.45;;
30647;SDS011;17683;53.360;9.736;2023-03-31T15:46:24;4.22;;;1.15;;
30647;SDS011;17683;53.360;9.736;2023-03-31T15:49:04;4.20;;;1.42;;
30647;SDS011;17683;53.360;9.736;2023-03-31T15:51:42;1.70;;;1.02;;
30647;SDS011;17683;53.360;9.736;2023-03-31T15:57:00;2.30;;;0.93;;
30647;SDS011;17683;53.360;9.736;2023-03-31T15:59:31;4.32;;;1.00;;
30647;SDS011;17683;53.360;9.736;2023-03-31T16:02:11;3.53;;;1.23;;
30647;SDS011;17683;53.360;9.736;2023-03-31T16:04:39;1.27;;;0.90;;
30647;SDS011;17683;53.360;9.736;2023-03-31T16:07:06;0.98;;;0.85;;
30647;SDS011;17683;53.360;9.736;2023-03-31T16:09:51;2.30;;;1.10;;
30647;SDS011;17683;53.360;9.736;2023-03-31T16:12:27;1.77;;;1.10;;
30647;SDS011;17683;53.360;9.736;2023-03-31T16:17:46;2.13;;;1.27;;
30647;SDS011;17683;53.360;9.736;2023-03-31T16:20:21;1.80;;;1.17;;
30647;SDS011;17683;53.360;9.736;2023-03-31T16:23:12;2.78;;;1.02;;
30647;SDS011;17683;53.360;9.736;2023-03-31T16:25:40;1.63;;;0.80;;
30647;SDS011;17683;53.360;9.736;2023-03-31T16:28:07;3.38;;;0.85;;
30647;SDS011;17683;53.360;9.736;2023-03-31T16:30:41;2.42;;;1.20;;
30647;SDS011;17683;53.360;9.736;2023-03-31T16:33:09;2.17;;;0.95;;
30647;SDS011;17683;53.360;9.736;2023-03-31T16:35:38;4.88;;;1.10;;
30647;SDS011;17683;53.360;9.736;2023-03-31T16:38:09;4.15;;;1.30;;
30647;SDS011;17683;53.360;9.736;2023-03-31T16:40:37;2.20;;;1.00;;
30647;SDS011;17683;53.360;9.736;2023-03-31T16:43:12;4.82;;;1.00;;
30647;SDS011;17683;53.360;9.736;2023-03-31T16:45:42;1.65;;;0.90;;
30647;SDS011;17683;53.360;9.736;2023-03-31T16:48:09;3.03;;;1.27;;
30647;SDS011;17683;53.360;9.736;2023-03-31T16:50:35;1.55;;;0.77;;
30647;SDS011;17683;53.360;9.736;2023-03-31T16:53:01;3.63;;;0.73;;
30647;SDS011;17683;53.360;9.736;2023-03-31T16:55:27;2.22;;;0.95;;
30647;SDS011;17683;53.360;9.736;2023-03-31T16:57:55;2.13;;;1.00;;
30647;SDS011;17683;53.360;9.736;2023-03-31T17:00:23;1.17;;;0.75;;
30647;SDS011;17683;53.360;9.736;2023-03-31T17:02:49;7.10;;;1.08;;
30647;SDS011;17683;53.360;9.736;2023-03-31T17:05:15;2.58;;;1.05;;
30647;SDS011;17683;53.360;9.736;2023-03-31T17:07:40;2.58;;;0.75;;
30647;SDS011;17683;53.360;9.736;2023-03-31T17:10:06;1.98;;;1.00;;
30647;SDS011;17683;53.360;9.736;2023-03-31T17:12:33;5.00;;;0.98;;
30647;SDS011;17683;53.360;9.736;2023-03-31T17:14:58;2.75;;;0.95;;
30647;SDS011;17683;53.360;9.736;2023-03-31T17:17:24;2.53;;;1.05;;
30647;SDS011;17683;53.360;9.736;2023-03-31T17:19:50;2.28;;;1.10;;
30647;SDS011;17683;53.360;9.736;2023-03-31T17:22:16;2.70;;;0.82;;
30647;SDS011;17683;53.360;9.736;2023-03-31T17:24:42;3.03;;;0.90;;
30647;SDS011;17683;53.360;9.736;2023-03-31T17:27:08;4.03;;;1.13;;
30647;SDS011;17683;53.360;9.736;2023-03-31T17:29:34;4.53;;;1.58;;
30647;SDS011;17683;53.360;9.736;2023-03-31T17:31:59;3.75;;;1.45;;
30647;SDS011;17683;53.360;9.736;2023-03-31T17:34:25;3.53;;;1.35;;
30647;SDS011;17683;53.360;9.736;2023-03-31T17:36:51;1.38;;;0.57;;
30647;SDS011;17683;53.360;9.736;2023-03-31T17:39:19;1.10;;;0.60;;
30647;SDS011;17683;53.360;9.736;2023-03-31T17:41:45;3.30;;;1.20;;
30647;SDS011;17683;53.360;9.736;2023-03-31T17:44:11;1.85;;;1.10;;
30647;SDS011;17683;53.360;9.736;2023-03-31T17:46:36;1.05;;;0.90;;
30647;SDS011;17683;53.360;9.736;2023-03-31T17:49:02;3.28;;;1.00;;
30647;SDS011;17683;53.360;9.736;2023-03-31T17:51:28;4.35;;;1.42;;
30647;SDS011;17683;53.360;9.736;2023-03-31T17:53:56;5.22;;;1.02;;
30647;SDS011;17683;53.360;9.736;2023-03-31T17:56:22;7.30;;;1.25;;
30647;SDS011;17683;53.360;9.736;2023-03-31T17:58:48;6.18;;;1.33;;
30647;SDS011;17683;53.360;9.736;2023-03-31T18:01:14;2.08;;;1.05;;